createdAt,value
2022-10-27T00:01:55.534Z,15.80
2022-10-27T00:04:27.561Z,15.80
2022-10-27T00:06:59.503Z,15.70
2022-10-27T00:09:31.528Z,15.70
2022-10-27T00:12:04.172Z,15.80
2022-10-27T00:14:36.275Z,15.80
2022-10-27T00:17:08.321Z,15.80
2022-10-27T00:19:40.250Z,15.70
2022-10-27T00:22:12.223Z,15.70
2022-10-27T00:24:44.130Z,15.60
2022-10-27T00:27:16.175Z,15.60
2022-10-27T00:29:48.080Z,15.60
2022-10-27T00:32:19.958Z,15.60
2022-10-27T00:34:51.822Z,15.60
2022-10-27T00:37:23.739Z,15.70
2022-10-27T00:39:55.659Z,15.80
2022-10-27T00:42:27.629Z,15.90
2022-10-27T00:44:59.575Z,15.80
2022-10-27T00:47:37.286Z,15.90
2022-10-27T00:50:13.279Z,15.90
2022-10-27T00:52:51.725Z,15.90
2022-10-27T00:55:34.567Z,15.80
2022-10-27T00:58:14.675Z,15.70
2022-10-27T01:00:46.696Z,15.70
2022-10-27T01:03:22.315Z,15.70
2022-10-27T01:05:57.074Z,15.70
2022-10-27T01:08:29.225Z,15.70
2022-10-27T01:11:01.292Z,15.70
2022-10-27T01:13:33.310Z,15.70
2022-10-27T01:16:26.436Z,15.70
2022-10-27T01:19:28.783Z,15.60
2022-10-27T01:22:15.662Z,15.60
2022-10-27T01:25:35.871Z,15.60
2022-10-27T01:28:22.659Z,15.70
2022-10-27T01:30:54.472Z,15.70
2022-10-27T01:33:38.318Z,15.70
2022-10-27T01:36:19.188Z,15.70
2022-10-27T01:39:40.219Z,15.70
2022-10-27T01:42:20.772Z,15.70
2022-10-27T01:44:56.525Z,15.70
2022-10-27T01:47:29.987Z,15.70
2022-10-27T01:50:02.212Z,15.70
2022-10-27T01:52:49.005Z,15.70
2022-10-27T01:55:27.145Z,15.60
2022-10-27T01:58:21.598Z,15.60
2022-10-27T02:01:18.794Z,15.50
2022-10-27T02:03:53.550Z,15.50
2022-10-27T02:06:50.542Z,15.40
2022-10-27T02:09:46.695Z,15.40
2022-10-27T02:12:27.014Z,15.40
2022-10-27T02:15:01.816Z,15.40
2022-10-27T02:17:43.017Z,15.40
2022-10-27T02:20:29.507Z,15.40
2022-10-27T02:23:07.375Z,15.50
2022-10-27T02:25:53.955Z,15.50
2022-10-27T02:28:34.027Z,15.50
2022-10-27T02:31:08.115Z,15.40
2022-10-27T02:33:40.451Z,15.40
2022-10-27T02:36:12.339Z,15.40
2022-10-27T02:38:44.235Z,15.40
2022-10-27T02:41:16.167Z,15.40
2022-10-27T02:43:48.096Z,15.40
2022-10-27T02:46:20.061Z,15.40
2022-10-27T02:48:51.934Z,15.40
2022-10-27T02:51:23.838Z,15.30
2022-10-27T02:53:55.778Z,15.40
2022-10-27T02:56:27.695Z,15.40
2022-10-27T02:58:59.568Z,15.30
2022-10-27T03:01:31.543Z,15.40
2022-10-27T03:04:03.681Z,15.50
2022-10-27T03:06:35.634Z,15.40
2022-10-27T03:09:07.726Z,15.40
2022-10-27T03:11:41.556Z,15.50
2022-10-27T03:14:16.022Z,15.50
2022-10-27T03:16:47.900Z,15.60
2022-10-27T03:19:19.900Z,15.50
2022-10-27T03:21:51.748Z,15.50
2022-10-27T03:24:23.591Z,15.40
2022-10-27T03:26:55.527Z,15.40
2022-10-27T03:29:27.529Z,15.30
2022-10-27T03:31:59.380Z,15.20
2022-10-27T03:34:31.198Z,15.20
2022-10-27T03:37:03.069Z,15.20
2022-10-27T03:39:35.018Z,15.20
2022-10-27T03:42:07.182Z,15.30
2022-10-27T03:44:39.146Z,15.30
2022-10-27T03:47:11.013Z,15.40
2022-10-27T03:49:42.923Z,15.40
2022-10-27T03:52:15.103Z,15.40
2022-10-27T03:54:47.007Z,15.30
2022-10-27T03:57:18.938Z,15.40
2022-10-27T03:59:50.833Z,15.40
2022-10-27T04:02:22.823Z,15.40
2022-10-27T04:04:57.555Z,15.40
2022-10-27T04:07:29.437Z,15.40
2022-10-27T04:10:01.321Z,15.30
2022-10-27T04:12:33.229Z,15.30
2022-10-27T04:15:06.052Z,15.20
2022-10-27T04:17:37.947Z,15.30
2022-10-27T04:20:10.764Z,15.20
2022-10-27T04:22:42.643Z,15.20
2022-10-27T04:25:14.821Z,15.20
2022-10-27T04:27:46.734Z,15.20
2022-10-27T04:30:18.657Z,15.10
2022-10-27T04:32:53.373Z,15.10
2022-10-27T04:35:25.673Z,15.10
2022-10-27T04:37:57.950Z,15.10
2022-10-27T04:40:29.866Z,15.10
2022-10-27T04:43:01.910Z,15.10
2022-10-27T04:45:34.699Z,15.20
2022-10-27T04:48:06.766Z,15.20
2022-10-27T04:50:38.779Z,15.30
2022-10-27T04:53:10.831Z,15.30
2022-10-27T04:55:42.876Z,15.20
2022-10-27T04:58:14.766Z,15.20
2022-10-27T05:00:47.583Z,15.20
2022-10-27T05:03:20.058Z,15.20
2022-10-27T05:05:51.880Z,15.10
2022-10-27T05:08:23.706Z,15.10
2022-10-27T05:10:55.786Z,15.20
2022-10-27T05:13:27.674Z,15.20
2022-10-27T05:16:03.913Z,15.10
2022-10-27T05:18:35.852Z,15.20
2022-10-27T05:21:07.762Z,15.30
2022-10-27T05:23:42.004Z,15.30
2022-10-27T05:26:17.037Z,15.40
2022-10-27T05:28:48.991Z,15.40
2022-10-27T05:31:20.869Z,15.30
2022-10-27T05:33:52.792Z,15.20
2022-10-27T05:36:24.816Z,15.20
2022-10-27T05:38:56.655Z,15.10
2022-10-27T05:41:28.565Z,15.10
2022-10-27T05:44:00.566Z,15.10
2022-10-27T05:46:32.556Z,15.10
2022-10-27T05:49:04.441Z,15.10
2022-10-27T05:51:36.287Z,15.10
2022-10-27T05:54:08.283Z,15.10
2022-10-27T05:56:40.182Z,15.20
2022-10-27T05:59:12.538Z,15.20
2022-10-27T06:01:44.452Z,15.20
2022-10-27T06:04:16.401Z,15.10
2022-10-27T06:06:48.272Z,15.10
2022-10-27T06:09:20.133Z,15.10
2022-10-27T06:11:52.036Z,15.20
2022-10-27T06:14:26.830Z,15.20
2022-10-27T06:17:01.507Z,15.10
2022-10-27T06:19:33.423Z,15.20
2022-10-27T06:22:05.334Z,15.20
2022-10-27T06:24:37.162Z,15.20
2022-10-27T06:27:09.059Z,15.40
2022-10-27T06:29:40.968Z,15.50
2022-10-27T06:32:12.883Z,15.70
2022-10-27T06:34:44.800Z,15.90
2022-10-27T06:37:16.857Z,16.10
2022-10-27T06:39:48.778Z,16.30
2022-10-27T06:42:22.248Z,16.60
2022-10-27T06:44:55.970Z,16.70
2022-10-27T06:47:27.884Z,16.90
2022-10-27T06:50:00.175Z,17.10
2022-10-27T06:52:35.352Z,17.10
2022-10-27T06:55:08.712Z,17.20
2022-10-27T06:57:41.701Z,17.50
2022-10-27T07:00:14.630Z,17.70
2022-10-27T07:02:47.060Z,17.90
2022-10-27T07:05:19.801Z,18.10
2022-10-27T07:07:53.341Z,18.40
2022-10-27T07:10:25.611Z,18.60
2022-10-27T07:12:58.488Z,18.80
2022-10-27T07:15:33.159Z,19.10
2022-10-27T07:18:08.328Z,19.50
2022-10-27T07:20:40.566Z,19.70
2022-10-27T07:23:12.975Z,19.90
2022-10-27T07:25:49.025Z,20.20
2022-10-27T07:28:20.860Z,20.30
2022-10-27T07:30:55.487Z,20.20
2022-10-27T07:33:27.391Z,20.20
2022-10-27T07:35:59.287Z,20.30
2022-10-27T07:38:31.295Z,20.30
2022-10-27T07:41:03.142Z,20.60
2022-10-27T07:43:37.080Z,20.90
2022-10-27T07:46:09.339Z,21.20
2022-10-27T07:48:41.198Z,21.40
2022-10-27T07:51:13.082Z,21.30
2022-10-27T07:53:44.888Z,21.30
2022-10-27T07:56:19.787Z,21.20
2022-10-27T07:58:51.732Z,21.30
2022-10-27T08:01:23.777Z,21.50
2022-10-27T08:03:55.763Z,21.70
2022-10-27T08:06:27.656Z,21.90
2022-10-27T08:08:59.539Z,22.10
2022-10-27T08:11:31.542Z,22.20
2022-10-27T08:14:03.530Z,22.50
2022-10-27T08:16:35.401Z,22.70
2022-10-27T08:19:07.367Z,22.90
2022-10-27T08:21:39.225Z,23.20
2022-10-27T08:24:11.144Z,23.50
2022-10-27T08:26:43.074Z,23.70
2022-10-27T08:29:15.077Z,23.90
2022-10-27T08:31:46.975Z,23.90
2022-10-27T08:34:19.151Z,23.90
2022-10-27T08:36:51.045Z,23.90
2022-10-27T08:39:22.969Z,23.50
2022-10-27T08:42:07.561Z,23.20
2022-10-27T08:44:50.734Z,23.00
2022-10-27T08:47:29.013Z,22.90
2022-10-27T08:50:05.301Z,22.80
2022-10-27T08:52:45.657Z,22.80
2022-10-27T08:55:25.875Z,22.70
2022-10-27T08:58:06.785Z,22.90
2022-10-27T09:00:47.122Z,22.80
2022-10-27T09:04:04.443Z,23.00
2022-10-27T09:06:41.768Z,22.80
2022-10-27T09:09:36.623Z,23.10
2022-10-27T09:12:26.032Z,23.30
2022-10-27T09:15:28.766Z,23.30
2022-10-27T09:18:28.346Z,22.90
2022-10-27T09:21:05.616Z,23.10
2022-10-27T09:23:45.263Z,22.90
2022-10-27T09:26:21.167Z,23.00
2022-10-27T09:28:54.956Z,23.20
2022-10-27T09:31:40.885Z,23.10
2022-10-27T09:34:25.222Z,23.20
2022-10-27T09:36:57.494Z,23.00
2022-10-27T09:39:29.414Z,22.80
2022-10-27T09:42:01.299Z,22.70
2022-10-27T09:44:34.542Z,22.70
2022-10-27T09:47:06.426Z,22.70
2022-10-27T09:49:41.799Z,22.90
2022-10-27T09:52:20.298Z,23.30
2022-10-27T09:54:57.183Z,23.80
2022-10-27T09:57:34.135Z,24.10
2022-10-27T10:00:17.242Z,24.00
2022-10-27T10:03:17.295Z,24.50
2022-10-27T10:06:25.963Z,25.10
2022-10-27T10:09:17.318Z,25.60
2022-10-27T10:11:49.723Z,25.40
2022-10-27T10:14:24.291Z,25.40
2022-10-27T10:16:57.701Z,25.10
2022-10-27T10:19:29.914Z,25.50
2022-10-27T10:22:01.918Z,26.30
2022-10-27T10:24:36.474Z,27.20
2022-10-27T10:27:21.739Z,27.50
2022-10-27T10:29:54.797Z,26.70
2022-10-27T10:32:31.217Z,25.90
2022-10-27T10:35:23.461Z,25.70
2022-10-27T10:37:55.744Z,25.70
2022-10-27T10:40:29.268Z,25.60
2022-10-27T10:43:12.042Z,25.60
2022-10-27T10:45:52.695Z,25.60
2022-10-27T10:48:32.182Z,25.20
2022-10-27T10:51:04.475Z,25.20
2022-10-27T10:53:56.723Z,25.20
2022-10-27T10:56:31.562Z,25.00
2022-10-27T10:59:16.869Z,24.80
2022-10-27T11:01:52.920Z,24.40
2022-10-27T11:04:31.703Z,24.20
2022-10-27T11:07:17.291Z,24.30
2022-10-27T11:10:07.338Z,24.20
2022-10-27T11:13:12.019Z,23.80
2022-10-27T11:15:50.886Z,23.30
2022-10-27T11:18:37.024Z,23.20
2022-10-27T11:21:14.410Z,23.10
2022-10-27T11:23:52.966Z,23.20
2022-10-27T11:26:33.185Z,23.20
2022-10-27T11:29:31.604Z,23.20
2022-10-27T11:32:20.879Z,23.20
2022-10-27T11:35:14.264Z,23.50
2022-10-27T11:37:51.471Z,23.50
2022-10-27T11:40:41.382Z,23.50
2022-10-27T11:43:19.153Z,23.60
2022-10-27T11:46:04.307Z,23.70
2022-10-27T11:49:01.341Z,23.70
2022-10-27T11:51:44.213Z,23.50
2022-10-27T11:54:17.020Z,23.40
2022-10-27T11:57:16.280Z,23.30
2022-10-27T12:00:15.171Z,23.40
2022-10-27T12:06:24.390Z,23.40
2022-10-27T12:08:58.983Z,23.30
2022-10-27T12:12:15.279Z,23.30
2022-10-27T12:15:00.860Z,23.20
2022-10-27T12:17:55.548Z,23.30
2022-10-27T12:20:49.133Z,23.40
2022-10-27T12:23:24.021Z,23.60
2022-10-27T12:26:07.070Z,23.80
2022-10-27T12:28:39.141Z,23.90
2022-10-27T12:31:16.605Z,24.10
2022-10-27T12:33:57.313Z,24.10
2022-10-27T12:36:29.718Z,24.30
2022-10-27T12:39:32.066Z,24.30
2022-10-27T12:42:11.582Z,24.20
2022-10-27T12:45:01.183Z,24.30
2022-10-27T12:47:48.139Z,24.30
2022-10-27T12:51:01.601Z,24.30
2022-10-27T12:53:55.615Z,24.40
2022-10-27T12:56:33.781Z,24.20
2022-10-27T12:59:30.895Z,24.10
2022-10-27T13:02:14.150Z,24.10
2022-10-27T13:05:07.109Z,24.10
2022-10-27T13:08:09.270Z,24.30
2022-10-27T13:10:56.239Z,24.30
2022-10-27T13:13:28.125Z,24.40
2022-10-27T13:16:17.828Z,24.40
2022-10-27T13:19:04.446Z,24.30
2022-10-27T13:21:50.144Z,24.30
2022-10-27T13:24:44.742Z,24.30
2022-10-27T13:27:26.066Z,24.20
2022-10-27T13:30:13.605Z,24.20
2022-10-27T13:32:48.564Z,24.20
2022-10-27T13:35:27.146Z,24.20
2022-10-27T13:38:18.800Z,24.20
2022-10-27T13:40:52.907Z,24.20
2022-10-27T13:43:24.773Z,24.20
2022-10-27T13:45:56.750Z,24.10
2022-10-27T13:48:28.638Z,24.10
2022-10-27T13:51:48.414Z,24.10
2022-10-27T13:54:59.130Z,24.10
2022-10-27T13:58:04.307Z,24.20
2022-10-27T14:01:12.641Z,24.20
2022-10-27T14:04:10.955Z,24.20
2022-10-27T14:06:45.251Z,24.20
2022-10-27T14:09:25.368Z,24.20
2022-10-27T14:12:01.196Z,24.20
2022-10-27T14:14:36.357Z,24.20
2022-10-27T14:17:18.576Z,24.10
2022-10-27T14:20:15.758Z,24.20
2022-10-27T14:22:52.897Z,24.10
2022-10-27T14:25:30.633Z,24.10
2022-10-27T14:28:24.053Z,24.10
2022-10-27T14:31:20.002Z,24.00
2022-10-27T14:33:53.508Z,24.00
2022-10-27T14:36:31.929Z,23.90
2022-10-27T14:39:12.461Z,23.80
2022-10-27T14:41:48.898Z,23.80
2022-10-27T14:44:27.442Z,23.80
2022-10-27T14:47:04.174Z,23.80
2022-10-27T14:49:49.100Z,23.70
2022-10-27T14:52:31.083Z,23.50
2022-10-27T14:55:03.708Z,23.50
2022-10-27T14:57:37.808Z,23.50
2022-10-27T15:00:28.442Z,23.50
2022-10-27T15:03:11.131Z,23.40
2022-10-27T15:05:47.379Z,23.40
2022-10-27T15:08:22.136Z,23.20
2022-10-27T15:10:59.637Z,23.10
2022-10-27T15:13:32.094Z,23.00
2022-10-27T15:16:11.512Z,22.80
2022-10-27T15:18:44.146Z,22.70
2022-10-27T15:21:22.568Z,22.70
2022-10-27T15:24:01.829Z,22.60
2022-10-27T15:26:34.649Z,22.50
2022-10-27T15:29:15.790Z,22.50
2022-10-27T15:31:56.790Z,22.40
2022-10-27T15:34:36.349Z,22.30
2022-10-27T15:37:15.347Z,22.30
2022-10-27T15:39:47.196Z,22.30
2022-10-27T15:42:24.389Z,22.20
2022-10-27T15:45:22.017Z,22.10
2022-10-27T15:47:53.941Z,22.00
2022-10-27T15:50:28.453Z,21.90
2022-10-27T15:53:18.447Z,21.60
2022-10-27T15:56:27.782Z,21.40
2022-10-27T15:59:22.250Z,21.40
2022-10-27T16:02:05.872Z,21.30
2022-10-27T16:04:39.736Z,21.30
2022-10-27T16:07:14.652Z,21.30
2022-10-27T16:09:48.266Z,21.30
2022-10-27T16:12:34.760Z,21.20
2022-10-27T16:15:16.373Z,21.10
2022-10-27T16:17:55.078Z,20.90
2022-10-27T16:20:34.007Z,20.70
2022-10-27T16:23:13.696Z,20.60
2022-10-27T16:25:48.953Z,20.30
2022-10-27T16:28:26.053Z,20.00
2022-10-27T16:30:58.096Z,19.80
2022-10-27T16:33:30.100Z,19.60
2022-10-27T16:36:01.992Z,19.60
2022-10-27T16:38:36.681Z,19.40
2022-10-27T16:41:19.629Z,19.40
2022-10-27T16:43:51.930Z,19.40
2022-10-27T16:46:23.982Z,19.30
2022-10-27T16:48:55.907Z,19.30
2022-10-27T16:51:27.879Z,19.20
2022-10-27T16:54:00.084Z,19.10
2022-10-27T16:56:33.883Z,19.00
2022-10-27T16:59:05.860Z,18.90
2022-10-27T17:01:37.921Z,18.80
2022-10-27T17:04:10.078Z,18.70
2022-10-27T17:06:41.948Z,18.70
2022-10-27T17:09:14.944Z,18.70
2022-10-27T17:11:47.177Z,18.70
2022-10-27T17:14:19.096Z,18.70
2022-10-27T17:16:51.070Z,18.70
2022-10-27T17:19:23.289Z,18.70
2022-10-27T17:21:55.836Z,18.60
2022-10-27T17:24:27.829Z,18.60
2022-10-27T17:26:59.686Z,18.70
2022-10-27T17:29:35.001Z,18.60
2022-10-27T17:32:07.075Z,18.50
2022-10-27T17:34:38.978Z,18.50
2022-10-27T17:37:11.964Z,18.50
2022-10-27T17:39:43.853Z,18.40
2022-10-27T17:42:16.751Z,18.40
2022-10-27T17:44:48.706Z,18.30
2022-10-27T17:47:20.791Z,18.20
2022-10-27T17:49:52.692Z,18.20
2022-10-27T17:52:24.795Z,18.20
2022-10-27T17:54:56.770Z,18.10
2022-10-27T17:57:28.828Z,18.10
2022-10-27T18:00:00.910Z,18.00
2022-10-27T18:02:32.872Z,18.00
2022-10-27T18:05:05.027Z,18.00
2022-10-27T18:07:36.937Z,17.90
2022-10-27T18:10:09.315Z,17.90
2022-10-27T18:12:41.222Z,17.80
2022-10-27T18:18:05.912Z,17.80
2022-10-27T18:20:37.730Z,17.80
2022-10-27T18:23:09.742Z,17.80
2022-10-27T18:25:41.659Z,17.80
2022-10-27T18:28:13.550Z,17.70
2022-10-27T18:30:45.547Z,17.70
2022-10-27T18:33:17.608Z,17.70
2022-10-27T18:35:49.551Z,17.60
2022-10-27T18:38:21.568Z,17.60
2022-10-27T18:40:57.541Z,17.60
2022-10-27T18:43:29.449Z,17.50
2022-10-27T18:46:03.407Z,17.50
2022-10-27T18:48:36.249Z,17.50
2022-10-27T18:51:13.074Z,17.60
2022-10-27T18:53:46.024Z,17.50
2022-10-27T18:56:18.072Z,17.50
2022-10-27T18:59:01.452Z,17.50
2022-10-27T19:01:34.568Z,17.50
2022-10-27T19:04:08.340Z,17.40
2022-10-27T19:06:40.376Z,17.40
2022-10-27T19:09:13.061Z,17.30
2022-10-27T19:11:45.062Z,17.30
2022-10-27T19:14:17.059Z,17.30
2022-10-27T19:16:53.094Z,17.30
2022-10-27T19:19:28.816Z,17.30
2022-10-27T19:22:00.726Z,17.30
2022-10-27T19:24:33.638Z,17.30
2022-10-27T19:27:05.590Z,17.20
2022-10-27T19:29:37.625Z,17.30
2022-10-27T19:32:09.570Z,17.20
2022-10-27T19:34:44.064Z,17.20
2022-10-27T19:37:18.234Z,17.30
2022-10-27T19:39:50.098Z,17.30
2022-10-27T19:42:22.006Z,17.30
2022-10-27T19:44:53.957Z,17.30
2022-10-27T19:50:02.655Z,17.30
2022-10-27T19:52:34.677Z,17.20
2022-10-27T19:55:07.135Z,17.20
2022-10-27T19:57:39.438Z,17.30
2022-10-27T20:00:12.130Z,17.20
2022-10-27T20:02:44.162Z,17.10
2022-10-27T20:05:16.115Z,17.10
2022-10-27T20:07:47.996Z,17.00
2022-10-27T20:10:21.185Z,16.90
2022-10-27T20:12:53.311Z,16.90
2022-10-27T20:15:25.888Z,16.80
2022-10-27T20:17:57.802Z,16.80
2022-10-27T20:20:29.670Z,16.70
2022-10-27T20:23:01.601Z,16.80
2022-10-27T20:25:33.396Z,16.80
2022-10-27T20:28:05.424Z,16.90
2022-10-27T20:30:37.578Z,16.90
2022-10-27T20:33:09.490Z,17.00
2022-10-27T20:35:42.205Z,16.90
2022-10-27T20:38:14.255Z,16.80
2022-10-27T20:40:46.187Z,16.80
2022-10-27T20:43:18.141Z,16.80
2022-10-27T20:45:54.401Z,16.70
2022-10-27T20:48:26.557Z,16.70
2022-10-27T20:51:09.951Z,16.70
2022-10-27T20:53:41.910Z,16.80
2022-10-27T20:56:18.850Z,16.70
2022-10-27T20:58:51.489Z,16.70
2022-10-27T21:01:26.698Z,16.70
2022-10-27T21:04:01.302Z,16.60
2022-10-27T21:06:35.670Z,16.60
2022-10-27T21:09:10.710Z,16.60
2022-10-27T21:11:44.156Z,16.70
2022-10-27T21:14:16.657Z,16.70
2022-10-27T21:16:51.783Z,16.60
2022-10-27T21:19:24.134Z,16.60
2022-10-27T21:21:56.359Z,16.60
2022-10-27T21:24:28.153Z,16.60
2022-10-27T21:27:00.004Z,16.60
2022-10-27T21:29:32.943Z,16.50
2022-10-27T21:32:05.179Z,16.50
2022-10-27T21:34:37.069Z,16.50
2022-10-27T21:37:08.972Z,16.50
2022-10-27T21:39:40.804Z,16.50
2022-10-27T21:42:12.751Z,16.50
2022-10-27T21:44:44.683Z,16.50
2022-10-27T21:47:16.576Z,16.40
2022-10-27T21:49:48.615Z,16.40
2022-10-27T21:52:20.518Z,16.40
2022-10-27T21:54:52.486Z,16.40
2022-10-27T21:57:24.429Z,16.40
2022-10-27T21:59:56.267Z,16.30
2022-10-27T22:02:28.226Z,16.30
2022-10-27T22:05:00.337Z,16.40
2022-10-27T22:07:32.357Z,16.30
2022-10-27T22:10:04.506Z,16.30
2022-10-27T22:12:36.495Z,16.20
2022-10-27T22:15:09.036Z,16.20
2022-10-27T22:17:41.045Z,16.20
2022-10-27T22:20:12.962Z,16.30
2022-10-27T22:22:44.921Z,16.20
2022-10-27T22:25:16.806Z,16.30
2022-10-27T22:27:54.498Z,16.30
2022-10-27T22:30:26.502Z,16.30
2022-10-27T22:32:59.192Z,16.30
2022-10-27T22:35:32.757Z,16.30
2022-10-27T22:38:04.705Z,16.30
2022-10-27T22:40:36.574Z,16.20
2022-10-27T22:43:08.454Z,16.10
2022-10-27T22:45:40.520Z,16.10
2022-10-27T22:48:12.418Z,16.00
2022-10-27T22:50:44.292Z,16.10
2022-10-27T22:53:16.258Z,16.20
2022-10-27T22:55:48.165Z,16.20
2022-10-27T22:58:20.163Z,16.10
2022-10-27T23:00:54.993Z,16.10
2022-10-27T23:03:26.903Z,16.10
2022-10-27T23:05:59.050Z,16.10
2022-10-27T23:08:31.515Z,16.00
2022-10-27T23:11:06.150Z,15.90
2022-10-27T23:13:39.230Z,15.90
2022-10-27T23:16:11.120Z,15.90
2022-10-27T23:18:43.194Z,15.90
2022-10-27T23:21:16.699Z,15.90
2022-10-27T23:23:51.559Z,15.90
2022-10-27T23:26:26.121Z,16.00
2022-10-27T23:28:59.981Z,16.00
2022-10-27T23:31:32.680Z,16.00
2022-10-27T23:34:06.132Z,15.90
2022-10-27T23:36:39.352Z,15.90
2022-10-27T23:39:11.358Z,15.90
2022-10-27T23:41:43.141Z,15.90
2022-10-27T23:44:15.066Z,15.90
2022-10-27T23:46:47.011Z,15.90
2022-10-27T23:49:18.866Z,15.90
2022-10-27T23:51:50.750Z,15.80
2022-10-27T23:54:22.636Z,15.70
2022-10-27T23:56:54.503Z,15.70
2022-10-27T23:59:26.371Z,15.70
